createdAt,value
2023-05-22T00:01:56.769Z,99925.88
2023-05-22T00:04:23.892Z,99923.25
2023-05-22T00:06:50.889Z,99925.88
2023-05-22T00:09:17.966Z,99927.69
2023-05-22T00:11:45.181Z,99929.53
2023-05-22T00:14:13.739Z,99925.88
2023-05-22T00:16:41.411Z,99926.13
2023-05-22T00:19:17.408Z,99920.88
2023-05-22T00:21:44.586Z,99915.03
2023-05-22T00:24:12.366Z,99921.09
2023-05-22T00:26:39.376Z,99920.06
2023-05-22T00:29:06.254Z,99922.91
2023-05-22T00:31:33.678Z,99914.25
2023-05-22T00:34:00.804Z,99909.75
2023-05-22T00:36:27.850Z,99912.09
2023-05-22T00:38:54.746Z,99916.78
2023-05-22T00:41:22.390Z,99921.25
2023-05-22T00:43:51.144Z,99924.16
2023-05-22T00:46:21.757Z,99911.28
2023-05-22T00:48:49.268Z,99918.38
2023-05-22T00:51:16.285Z,99918.91
2023-05-22T00:53:43.597Z,99926.78
2023-05-22T00:56:10.620Z,99927.84
2023-05-22T00:58:37.731Z,99921.53
2023-05-22T01:01:07.774Z,99917.00
2023-05-22T01:03:35.267Z,99924.88
2023-05-22T01:06:02.180Z,99919.88
2023-05-22T01:08:29.351Z,99922.44
2023-05-22T01:11:08.485Z,99915.63
2023-05-22T01:13:53.925Z,99912.94
2023-05-22T01:16:37.432Z,99909.50
2023-05-22T01:19:33.207Z,99918.09
2023-05-22T01:22:32.346Z,99920.72
2023-05-22T01:25:21.198Z,99927.50
2023-05-22T01:28:10.126Z,99920.41
2023-05-22T01:30:45.868Z,99930.38
2023-05-22T01:33:17.376Z,99924.09
2023-05-22T01:35:54.064Z,99934.84
2023-05-22T01:38:21.811Z,99942.47
2023-05-22T01:40:49.692Z,99940.63
2023-05-22T01:43:17.697Z,99936.44
2023-05-22T01:45:46.221Z,99934.03
2023-05-22T01:48:13.185Z,99932.22
2023-05-22T01:50:41.099Z,99941.16
2023-05-22T01:53:33.690Z,99939.75
2023-05-22T01:56:30.698Z,99930.03
2023-05-22T01:59:02.502Z,99931.09
2023-05-22T02:01:32.668Z,99928.97
2023-05-22T02:04:01.385Z,99933.69
2023-05-22T02:06:32.340Z,99922.09
2023-05-22T02:09:02.313Z,99924.97
2023-05-22T02:11:33.172Z,99926.25
2023-05-22T02:14:01.912Z,99916.22
2023-05-22T02:16:30.331Z,99916.47
2023-05-22T02:19:06.096Z,99921.69
2023-05-22T02:21:53.121Z,99914.03
2023-05-22T02:24:20.118Z,99920.31
2023-05-22T02:26:47.893Z,99922.41
2023-05-22T02:29:17.745Z,99914.03
2023-05-22T02:31:44.790Z,99921.84
2023-05-22T02:34:11.884Z,99923.91
2023-05-22T02:36:38.809Z,99929.91
2023-05-22T02:39:05.756Z,99926.00
2023-05-22T02:41:33.295Z,99936.38
2023-05-22T02:44:00.229Z,99928.75
2023-05-22T02:46:27.229Z,99927.72
2023-05-22T02:48:54.215Z,99922.44
2023-05-22T02:51:21.423Z,99926.56
2023-05-22T02:53:48.305Z,99918.47
2023-05-22T02:56:15.819Z,99918.47
2023-05-22T02:58:42.742Z,99926.34
2023-05-22T03:01:10.565Z,99922.13
2023-05-22T03:03:37.918Z,99920.84
2023-05-22T03:06:05.121Z,99924.50
2023-05-22T03:08:33.461Z,99926.09
2023-05-22T03:11:03.198Z,99925.31
2023-05-22T03:13:30.193Z,99924.81
2023-05-22T03:15:57.183Z,99930.06
2023-05-22T03:18:26.700Z,99924.81
2023-05-22T03:20:55.332Z,99924.81
2023-05-22T03:23:22.637Z,99917.19
2023-05-22T03:25:49.672Z,99917.19
2023-05-22T03:28:16.833Z,99924.31
2023-05-22T03:30:44.826Z,99930.06
2023-05-22T03:33:17.815Z,99924.53
2023-05-22T03:35:45.075Z,99921.13
2023-05-22T03:38:12.243Z,99925.41
2023-05-22T03:40:40.079Z,99924.66
2023-05-22T03:43:08.824Z,99924.94
2023-05-22T03:45:35.959Z,99922.38
2023-05-22T03:48:04.248Z,99920.31
2023-05-22T03:50:31.299Z,99922.16
2023-05-22T03:52:58.179Z,99925.91
2023-05-22T03:55:25.082Z,99923.31
2023-05-22T03:57:51.991Z,99928.88
2023-05-22T04:00:19.819Z,99936.75
2023-05-22T04:02:47.113Z,99923.16
2023-05-22T04:05:14.154Z,99925.81
2023-05-22T04:07:41.321Z,99924.53
2023-05-22T04:10:08.656Z,99925.84
2023-05-22T04:12:35.650Z,99929.84
2023-05-22T04:15:02.875Z,99933.78
2023-05-22T04:17:36.096Z,99935.38
2023-05-22T04:20:05.474Z,99931.50
2023-05-22T04:22:33.721Z,99937.06
2023-05-22T04:25:00.586Z,99939.25
2023-05-22T04:27:30.954Z,99921.38
2023-05-22T04:30:00.160Z,99928.78
2023-05-22T04:32:27.670Z,99934.06
2023-05-22T04:34:58.521Z,99929.59
2023-05-22T04:37:28.784Z,99931.47
2023-05-22T04:39:58.350Z,99932.03
2023-05-22T04:42:25.510Z,99930.50
2023-05-22T04:44:58.087Z,99940.50
2023-05-22T04:47:25.276Z,99938.97
2023-05-22T04:49:52.162Z,99930.28
2023-05-22T04:52:19.030Z,99922.72
2023-05-22T04:54:46.879Z,99921.91
2023-05-22T04:57:14.157Z,99929.56
2023-05-22T04:59:41.600Z,99925.94
2023-05-22T05:02:09.354Z,99925.41
2023-05-22T05:04:38.785Z,99925.69
2023-05-22T05:07:06.303Z,99921.28
2023-05-22T05:09:33.639Z,99924.66
2023-05-22T05:12:02.250Z,99920.72
2023-05-22T05:14:29.679Z,99924.94
2023-05-22T05:16:57.103Z,99928.13
2023-05-22T05:19:24.095Z,99927.03
2023-05-22T05:21:51.231Z,99928.03
2023-05-22T05:24:19.305Z,99926.22
2023-05-22T05:26:48.939Z,99925.63
2023-05-22T05:29:17.775Z,99927.09
2023-05-22T05:31:54.519Z,99929.59
2023-05-22T05:34:35.126Z,99919.19
2023-05-22T05:37:10.923Z,99934.09
2023-05-22T05:39:38.497Z,99932.22
2023-05-22T05:42:07.472Z,99930.94
2023-05-22T05:44:34.601Z,99932.78
2023-05-22T05:47:03.452Z,99940.84
2023-05-22T05:49:30.596Z,99945.22
2023-05-22T05:51:58.352Z,99942.56
2023-05-22T05:54:28.879Z,99941.38
2023-05-22T05:57:01.514Z,99941.44
2023-05-22T05:59:29.215Z,99939.63
2023-05-22T06:02:24.709Z,99946.59
2023-05-22T06:04:56.111Z,99937.16
2023-05-22T06:07:24.338Z,99940.97
2023-05-22T06:09:53.486Z,99935.53
2023-05-22T06:12:41.296Z,99942.50
2023-05-22T06:15:09.720Z,99941.19
2023-05-22T06:17:39.876Z,99947.66
2023-05-22T06:20:07.564Z,99941.63
2023-05-22T06:22:35.836Z,99947.91
2023-05-22T06:25:03.482Z,99937.84
2023-05-22T06:27:33.182Z,99936.81
2023-05-22T06:30:03.102Z,99943.53
2023-05-22T06:32:35.531Z,99934.88
2023-05-22T06:35:03.248Z,99938.06
2023-05-22T06:37:35.823Z,99943.91
2023-05-22T06:40:03.904Z,99935.59
2023-05-22T06:42:52.518Z,99938.34
2023-05-22T06:45:25.650Z,99942.41
2023-05-22T06:48:21.164Z,99954.16
2023-05-22T06:51:12.848Z,99956.44
2023-05-22T06:53:41.230Z,99949.78
2023-05-22T06:56:16.580Z,99958.72
2023-05-22T06:58:52.748Z,99956.69
2023-05-22T07:01:23.352Z,99961.94
2023-05-22T07:04:02.034Z,99966.78
2023-05-22T07:06:39.268Z,99957.75
2023-05-22T07:09:07.698Z,99956.31
2023-05-22T07:11:38.514Z,99956.06
2023-05-22T07:14:05.569Z,99944.22
2023-05-22T07:16:32.767Z,99944.63
2023-05-22T07:19:01.585Z,99947.16
2023-05-22T07:21:31.830Z,99941.00
2023-05-22T07:23:59.265Z,99943.41
2023-05-22T07:26:32.626Z,99939.22
2023-05-22T07:29:07.196Z,99940.56
2023-05-22T07:31:34.864Z,99945.03
2023-05-22T07:34:02.807Z,99944.81
2023-05-22T07:36:31.941Z,99941.94
2023-05-22T07:38:59.130Z,99936.47
2023-05-22T07:41:28.231Z,99935.84
2023-05-22T07:43:55.900Z,99942.63
2023-05-22T07:46:28.295Z,99940.53
2023-05-22T07:49:01.879Z,99946.22
2023-05-22T07:51:33.872Z,99940.00
2023-05-22T07:54:02.404Z,99933.34
2023-05-22T07:56:30.710Z,99941.81
2023-05-22T07:58:58.659Z,99945.28
2023-05-22T08:01:26.159Z,99949.13
2023-05-22T08:03:53.331Z,99945.28
2023-05-22T08:06:23.220Z,99950.44
2023-05-22T08:08:53.150Z,99940.81
2023-05-22T08:11:21.564Z,99941.47
2023-05-22T08:13:49.906Z,99938.94
2023-05-22T08:16:16.952Z,99942.47
2023-05-22T08:18:45.123Z,99948.91
2023-05-22T08:21:12.285Z,99930.97
2023-05-22T08:23:39.546Z,99935.84
2023-05-22T08:26:11.656Z,99938.63
2023-05-22T08:28:42.197Z,99938.09
2023-05-22T08:31:09.643Z,99933.78
2023-05-22T08:33:36.902Z,99938.34
2023-05-22T08:36:03.889Z,99936.88
2023-05-22T08:38:30.816Z,99934.72
2023-05-22T08:40:59.263Z,99945.03
2023-05-22T08:43:28.662Z,99931.00
2023-05-22T08:46:09.063Z,99936.06
2023-05-22T08:48:37.316Z,99940.81
2023-05-22T08:51:09.475Z,99939.59
2023-05-22T08:53:39.130Z,99930.28
2023-05-22T08:56:08.832Z,99931.94
2023-05-22T08:58:38.827Z,99929.03
2023-05-22T09:01:07.616Z,99928.81
2023-05-22T09:03:37.840Z,99931.53
2023-05-22T09:06:10.488Z,99934.22
2023-05-22T09:08:39.075Z,99927.28
2023-05-22T09:11:06.787Z,99928.41
2023-05-22T09:13:33.731Z,99924.09
2023-05-22T09:16:13.432Z,99923.94
2023-05-22T09:18:42.937Z,99928.31
2023-05-22T09:21:25.621Z,99918.22
2023-05-22T09:24:01.290Z,99924.59
2023-05-22T09:26:30.046Z,99924.09
2023-05-22T09:29:01.941Z,99928.78
2023-05-22T09:31:32.262Z,99918.91
2023-05-22T09:33:59.946Z,99916.50
2023-05-22T09:36:35.722Z,99910.78
2023-05-22T09:39:04.315Z,99914.19
2023-05-22T09:41:39.204Z,99914.94
2023-05-22T09:44:14.599Z,99921.47
2023-05-22T09:46:50.933Z,99919.09
2023-05-22T09:49:18.541Z,99905.44
2023-05-22T09:51:50.054Z,99914.19
2023-05-22T09:54:20.135Z,99912.53
2023-05-22T09:56:53.101Z,99911.53
2023-05-22T09:59:30.575Z,99904.34
2023-05-22T10:01:59.413Z,99907.41
2023-05-22T10:04:33.191Z,99906.13
2023-05-22T10:07:03.771Z,99903.50
2023-05-22T10:09:36.213Z,99899.66
2023-05-22T10:12:04.515Z,99901.63
2023-05-22T10:14:34.980Z,99890.13
2023-05-22T10:17:09.683Z,99891.41
2023-05-22T10:19:41.729Z,99885.03
2023-05-22T10:22:15.004Z,99887.22
2023-05-22T10:24:42.670Z,99900.38
2023-05-22T10:27:09.668Z,99884.59
2023-05-22T10:29:58.756Z,99891.66
2023-05-22T10:32:54.035Z,99881.47
2023-05-22T10:35:43.309Z,99876.47
2023-05-22T10:38:32.111Z,99880.53
2023-05-22T10:41:01.682Z,99877.72
2023-05-22T10:43:34.535Z,99876.91
2023-05-22T10:46:06.979Z,99878.44
2023-05-22T10:48:39.651Z,99878.28
2023-05-22T11:36:37.637Z,99835.00
2023-05-22T11:39:07.824Z,99831.59
2023-05-22T11:41:34.902Z,99828.28
2023-05-22T11:44:02.740Z,99824.50
2023-05-22T11:46:30.420Z,99819.53
2023-05-22T11:48:57.729Z,99814.81
2023-05-22T11:51:24.931Z,99817.31
2023-05-22T11:53:57.533Z,99817.00
2023-05-22T11:56:24.495Z,99819.63
2023-05-22T11:58:51.944Z,99815.44
2023-05-22T12:01:19.641Z,99800.38
2023-05-22T12:03:46.640Z,99803.22
2023-05-22T12:06:15.791Z,99815.59
2023-05-22T12:08:44.830Z,99808.56
2023-05-22T12:11:37.634Z,99798.22
2023-05-22T12:14:07.610Z,99793.38
2023-05-22T12:16:37.999Z,99788.84
2023-05-22T12:19:13.685Z,99795.41
2023-05-22T12:21:44.779Z,99785.72
2023-05-22T12:24:12.148Z,99789.94
2023-05-22T12:26:39.023Z,99787.59
2023-05-22T12:29:06.992Z,99785.84
2023-05-22T12:31:38.607Z,99781.31
2023-05-22T12:34:08.416Z,99784.47
2023-05-22T12:36:38.548Z,99776.19
2023-05-22T12:39:21.366Z,99783.53
2023-05-22T12:41:48.467Z,99778.34
2023-05-22T12:44:16.913Z,99779.97
2023-05-22T12:46:44.005Z,99780.56
2023-05-22T12:49:11.328Z,99768.19
2023-05-22T12:51:38.346Z,99770.69
2023-05-22T12:54:06.096Z,99765.94
2023-05-22T12:56:33.139Z,99757.84
2023-05-22T12:59:00.180Z,99762.19
2023-05-22T13:01:27.434Z,99763.44
2023-05-22T13:03:54.332Z,99766.88
2023-05-22T13:06:21.390Z,99762.03
2023-05-22T13:08:49.481Z,99764.38
2023-05-22T13:11:16.432Z,99765.19
2023-05-22T13:13:43.287Z,99767.06
2023-05-22T13:16:11.208Z,99768.34
2023-05-22T13:18:38.244Z,99759.06
2023-05-22T13:21:06.306Z,99758.31
2023-05-22T13:23:33.168Z,99761.25
2023-05-22T13:26:02.372Z,99755.59
2023-05-22T13:28:29.265Z,99756.53
2023-05-22T13:30:56.610Z,99757.63
2023-05-22T13:33:23.728Z,99760.09
2023-05-22T13:35:53.121Z,99757.09
2023-05-22T13:38:20.255Z,99754.91
2023-05-22T13:40:48.617Z,99750.03
2023-05-22T13:43:15.961Z,99744.53
2023-05-22T13:45:42.878Z,99746.81
2023-05-22T13:48:09.998Z,99750.31
2023-05-22T13:50:40.615Z,99749.47
2023-05-22T13:53:11.471Z,99743.81
2023-05-22T13:55:43.268Z,99740.22
2023-05-22T13:58:15.234Z,99743.19
2023-05-22T14:00:43.717Z,99735.81
2023-05-22T14:03:24.911Z,99736.91
2023-05-22T14:05:57.104Z,99734.31
2023-05-22T14:08:31.383Z,99724.66
2023-05-22T14:10:58.289Z,99729.56
2023-05-22T14:13:29.861Z,99728.66
2023-05-22T14:16:08.494Z,99716.66
2023-05-22T14:18:40.747Z,99717.13
2023-05-22T14:21:12.905Z,99712.47
2023-05-22T14:23:40.180Z,99701.75
2023-05-22T14:26:07.086Z,99704.38
2023-05-22T14:28:34.638Z,99703.00
2023-05-22T14:31:01.661Z,99703.00
2023-05-22T14:33:30.188Z,99701.59
2023-05-22T14:35:57.404Z,99704.41
2023-05-22T14:38:24.534Z,99693.19
2023-05-22T14:40:59.461Z,99697.88
2023-05-22T14:43:31.569Z,99705.72
2023-05-22T14:45:59.303Z,99706.22
2023-05-22T14:48:26.639Z,99706.06
2023-05-22T14:50:54.227Z,99705.81
2023-05-22T14:53:22.095Z,99701.72
2023-05-22T14:55:49.181Z,99705.94
2023-05-22T14:58:16.185Z,99711.91
2023-05-22T15:00:43.109Z,99713.44
2023-05-22T15:07:16.522Z,99701.53
2023-05-22T15:09:43.389Z,99706.06
2023-05-22T15:12:15.969Z,99696.06
2023-05-22T15:14:42.916Z,99696.25
2023-05-22T15:17:11.566Z,99690.00
2023-05-22T15:19:39.672Z,99697.00
2023-05-22T15:22:19.447Z,99693.88
2023-05-22T15:25:02.449Z,99693.41
2023-05-22T15:27:30.578Z,99695.31
2023-05-22T15:29:57.827Z,99679.22
2023-05-22T15:32:24.683Z,99680.78
2023-05-22T15:35:17.308Z,99678.91
2023-05-22T15:37:44.332Z,99681.56
2023-05-22T15:40:16.195Z,99678.75
2023-05-22T15:42:43.038Z,99675.16
2023-05-22T15:45:10.112Z,99680.94
2023-05-22T15:47:37.358Z,99679.38
2023-05-22T15:50:38.292Z,99672.50
2023-05-22T15:53:56.101Z,99673.91
2023-05-22T15:56:24.939Z,99668.94
2023-05-22T15:58:55.252Z,99662.34
2023-05-22T16:01:22.252Z,99662.97
2023-05-22T16:03:49.266Z,99667.06
2023-05-22T16:06:16.305Z,99661.56
2023-05-22T16:08:43.233Z,99660.47
2023-05-22T16:11:10.146Z,99662.66
2023-05-22T16:13:37.150Z,99671.88
2023-05-22T16:16:05.976Z,99669.69
2023-05-22T16:18:34.000Z,99666.09
2023-05-22T16:21:01.276Z,99667.34
2023-05-22T16:23:28.298Z,99666.09
2023-05-22T16:25:55.142Z,99670.31
2023-05-22T16:28:22.344Z,99672.38
2023-05-22T16:30:49.189Z,99680.59
2023-05-22T16:33:16.205Z,99677.50
2023-05-22T16:35:47.421Z,99682.50
2023-05-22T16:38:14.947Z,99677.34
2023-05-22T16:40:42.247Z,99682.97
2023-05-22T16:43:13.833Z,99692.94
2023-05-22T16:45:46.556Z,99688.41
2023-05-22T16:48:13.562Z,99691.22
2023-05-22T16:50:42.443Z,99692.19
2023-05-22T16:53:09.576Z,99687.44
2023-05-22T16:55:36.554Z,99696.97
2023-05-22T16:58:14.697Z,99691.84
2023-05-22T17:00:44.881Z,99695.25
2023-05-22T17:03:14.206Z,99688.66
2023-05-22T17:05:42.540Z,99692.53
2023-05-22T17:08:09.645Z,99694.84
2023-05-22T17:10:36.620Z,99690.75
2023-05-22T17:13:03.658Z,99692.00
2023-05-22T17:15:30.534Z,99697.13
2023-05-22T17:17:57.520Z,99695.38
2023-05-22T17:20:24.650Z,99692.28
2023-05-22T17:22:52.460Z,99688.38
2023-05-22T17:25:19.516Z,99681.31
2023-05-22T17:27:47.915Z,99686.94
2023-05-22T17:30:40.644Z,99693.16
2023-05-22T17:33:08.139Z,99692.00
2023-05-22T17:35:34.979Z,99689.16
2023-05-22T17:38:01.866Z,99688.19
2023-05-22T17:40:43.150Z,99684.59
2023-05-22T17:43:12.077Z,99687.38
2023-05-22T17:45:42.268Z,99690.16
2023-05-22T17:48:09.352Z,99679.03
2023-05-22T17:50:36.424Z,99683.53
2023-05-22T17:53:03.402Z,99677.88
2023-05-22T17:55:30.501Z,99682.47
2023-05-22T17:57:57.499Z,99677.94
2023-05-22T18:00:24.431Z,99675.66
2023-05-22T18:02:51.628Z,99686.19
2023-05-22T18:05:18.603Z,99668.09
2023-05-22T18:07:45.550Z,99677.19
2023-05-22T18:10:12.706Z,99667.81
2023-05-22T18:12:42.705Z,99662.13
2023-05-22T18:15:12.112Z,99665.97
2023-05-22T18:17:42.119Z,99664.53
2023-05-22T18:20:16.706Z,99665.66
2023-05-22T18:22:43.903Z,99673.75
2023-05-22T18:25:11.095Z,99663.84
2023-05-22T18:27:38.254Z,99676.06
2023-05-22T18:30:06.921Z,99675.69
2023-05-22T18:32:35.304Z,99676.31
2023-05-22T18:35:05.578Z,99681.19
2023-05-22T18:37:33.372Z,99683.91
2023-05-22T18:40:00.339Z,99683.53
2023-05-22T18:42:27.246Z,99683.91
2023-05-22T18:44:54.179Z,99684.28
2023-05-22T18:47:21.289Z,99684.97
2023-05-22T18:49:49.222Z,99682.97
2023-05-22T18:52:17.071Z,99683.03
2023-05-22T18:54:44.263Z,99682.06
2023-05-22T18:57:12.088Z,99690.88
2023-05-22T18:59:40.832Z,99693.09
2023-05-22T19:02:08.455Z,99693.69
2023-05-22T19:04:35.466Z,99699.81
2023-05-22T19:07:04.630Z,99710.97
2023-05-22T19:09:39.641Z,99711.63
2023-05-22T19:12:06.517Z,99712.03
2023-05-22T19:14:33.338Z,99701.47
2023-05-22T19:17:01.303Z,99710.25
2023-05-22T19:19:28.357Z,99705.53
2023-05-22T19:21:55.376Z,99710.91
2023-05-22T19:24:24.891Z,99702.75
2023-05-22T19:26:54.486Z,99706.75
2023-05-22T19:29:21.450Z,99707.31
2023-05-22T19:31:51.074Z,99701.06
2023-05-22T19:34:20.244Z,99707.97
2023-05-22T19:36:47.135Z,99706.16
2023-05-22T19:39:16.445Z,99699.31
2023-05-22T19:41:43.389Z,99713.34
2023-05-22T19:44:10.201Z,99712.06
2023-05-22T19:46:38.144Z,99712.66
2023-05-22T19:49:05.055Z,99711.91
2023-05-22T19:51:32.499Z,99705.63
2023-05-22T19:54:00.494Z,99709.63
2023-05-22T19:56:28.325Z,99699.34
2023-05-22T19:58:55.231Z,99707.81
2023-05-22T20:01:22.917Z,99701.03
2023-05-22T20:03:49.970Z,99705.28
2023-05-22T20:06:17.173Z,99695.84
2023-05-22T20:08:44.320Z,99706.44
2023-05-22T20:11:14.215Z,99708.06
2023-05-22T20:13:41.563Z,99707.84
2023-05-22T20:16:11.954Z,99711.34
2023-05-22T20:18:44.893Z,99706.34
2023-05-22T20:21:11.810Z,99705.94
2023-05-22T20:23:39.925Z,99707.78
2023-05-22T20:26:06.765Z,99707.09
2023-05-22T20:28:33.700Z,99707.91
2023-05-22T20:31:00.899Z,99707.66
2023-05-22T20:33:28.395Z,99709.00
2023-05-22T20:35:55.646Z,99713.78
2023-05-22T20:38:25.109Z,99709.84
2023-05-22T20:40:52.085Z,99708.25
2023-05-22T20:43:27.150Z,99714.31
2023-05-22T20:45:55.856Z,99716.16
2023-05-22T20:48:25.094Z,99711.72
2023-05-22T20:50:52.339Z,99715.44
2023-05-22T20:53:21.120Z,99727.56
2023-05-22T20:55:48.255Z,99720.78
2023-05-22T20:58:16.560Z,99723.16
2023-05-22T21:00:45.861Z,99717.94
2023-05-22T21:03:12.868Z,99716.63
2023-05-22T21:05:39.936Z,99707.66
2023-05-22T21:08:08.857Z,99720.84
2023-05-22T21:10:35.744Z,99716.13
2023-05-22T21:13:02.848Z,99709.06
2023-05-22T21:15:29.738Z,99709.84
2023-05-22T21:17:56.887Z,99708.53
2023-05-22T21:20:23.868Z,99696.75
2023-05-22T21:22:50.786Z,99704.09
2023-05-22T21:25:20.755Z,99702.53
2023-05-22T21:27:49.275Z,99707.28
2023-05-22T21:30:41.841Z,99704.25
2023-05-22T21:33:09.973Z,99704.25
2023-05-22T21:35:39.319Z,99708.47
2023-05-22T21:38:08.506Z,99711.59
2023-05-22T21:41:00.700Z,99719.56
2023-05-22T21:43:40.900Z,99703.19
2023-05-22T21:46:14.995Z,99704.25
2023-05-22T21:48:41.901Z,99700.56
2023-05-22T21:51:11.380Z,99704.25
2023-05-22T21:53:38.905Z,99704.53
2023-05-22T21:56:06.074Z,99705.59
2023-05-22T21:58:32.957Z,99702.16
2023-05-22T22:01:00.013Z,99701.44
2023-05-22T22:03:27.062Z,99704.88
2023-05-22T22:05:53.891Z,99702.25
2023-05-22T22:08:20.757Z,99706.50
2023-05-22T22:10:47.571Z,99708.09
2023-05-22T22:13:17.915Z,99702.81
2023-05-22T22:15:44.777Z,99706.78
2023-05-22T22:18:15.085Z,99707.84
2023-05-22T22:20:45.060Z,99705.50
2023-05-22T22:23:24.708Z,99698.69
2023-05-22T22:25:51.508Z,99713.41
2023-05-22T22:28:18.913Z,99706.84
2023-05-22T22:30:45.961Z,99717.63
2023-05-22T22:33:13.864Z,99714.97
2023-05-22T22:35:42.305Z,99718.16
2023-05-22T22:38:13.779Z,99723.69
2023-05-22T22:40:41.374Z,99719.22
2023-05-22T22:43:16.647Z,99723.44
2023-05-22T22:45:46.522Z,99719.72
2023-05-22T22:48:16.741Z,99723.44
2023-05-22T22:50:46.951Z,99733.63
2023-05-22T22:53:13.809Z,99726.56
2023-05-22T22:55:43.355Z,99721.06
2023-05-22T22:58:10.430Z,99717.59
2023-05-22T23:00:37.195Z,99720.22
2023-05-22T23:03:04.247Z,99718.38
2023-05-22T23:05:31.180Z,99721.00
2023-05-22T23:08:02.205Z,99712.28
2023-05-22T23:10:29.383Z,99723.88
2023-05-22T23:13:04.334Z,99720.72
2023-05-22T23:15:31.391Z,99712.81
2023-05-22T23:18:05.090Z,99714.63
2023-05-22T23:20:33.275Z,99715.69
2023-05-22T23:23:00.190Z,99709.06
2023-05-22T23:25:31.918Z,99704.56
2023-05-22T23:27:58.706Z,99710.63
2023-05-22T23:30:25.709Z,99711.66
2023-05-22T23:32:52.712Z,99711.09
2023-05-22T23:35:19.650Z,99709.25
2023-05-22T23:37:46.508Z,99712.94
2023-05-22T23:40:13.791Z,99702.69
2023-05-22T23:42:40.874Z,99698.75
2023-05-22T23:45:08.149Z,99696.09
2023-05-22T23:47:35.034Z,99696.88
2023-05-22T23:50:02.082Z,99691.63
2023-05-22T23:52:31.006Z,99696.88
2023-05-22T23:54:58.061Z,99696.34
2023-05-22T23:57:24.924Z,99689.00
2023-05-22T23:59:51.818Z,99685.81
